Weather at McCarran International Airport

Public forecast

Using degrees Fahrenheit for public forecast. Weather courtesy of forecast.io.

Current aviation weather report (METAR) for McCarran International Airport

Retrieved 2021/07/29 00:14 UTC (0 seconds ago):

KLAS 290014Z 17007KT 10SM FEW120 BKN160 BKN210 38/09 A2993 RMK AO2 T03830094

Aviation forecast (TAF) for McCarran International Airport

Retrieved 2021-07-29 00:36 UTC (0 seconds ago):

TAF KLAS 282333Z 2900/3006 20009KT P6SM BKN150 FM291300 VRB06KT P6SM SCT150 FM291800 12007KT P6SM SCT150 FM300000 19010KT P6SM SCT150 BKN200 PROB30 3003/3006 21015G25KT TSRA SCT080CB